createdAt,value
2022-08-17T00:00:51.877Z,11.57
2022-08-17T00:03:40.432Z,10.65
2022-08-17T00:06:11.999Z,8.52
2022-08-17T00:08:54.136Z,10.30
2022-08-17T00:11:28.829Z,10.50
2022-08-17T00:13:59.671Z,8.02
2022-08-17T00:16:55.803Z,8.90
2022-08-17T00:19:24.017Z,10.85
2022-08-17T00:22:29.498Z,11.15
2022-08-17T00:24:40.509Z,11.48
2022-08-17T00:27:08.117Z,10.43
2022-08-17T00:29:34.839Z,8.18
2022-08-17T00:33:14.905Z,8.77
2022-08-17T00:34:52.660Z,9.25
2022-08-17T00:37:19.492Z,7.75
2022-08-17T00:39:46.343Z,7.18
2022-08-17T00:42:18.217Z,12.15
2022-08-17T00:44:45.712Z,7.20
2022-08-17T00:47:12.564Z,8.57
2022-08-17T00:49:39.502Z,6.93
2022-08-17T00:52:16.554Z,9.70
2022-08-17T00:54:47.001Z,6.57
2022-08-17T00:57:34.843Z,6.40
2022-08-17T01:00:08.752Z,8.07
2022-08-17T01:02:42.093Z,11.02
2022-08-17T01:05:16.184Z,7.80
2022-08-17T01:07:47.575Z,7.13
2022-08-17T01:10:59.084Z,8.60
2022-08-17T01:13:04.077Z,7.47
2022-08-17T01:15:35.066Z,7.90
2022-08-17T01:18:02.545Z,6.93
2022-08-17T01:20:29.535Z,5.43
2022-08-17T01:22:59.112Z,7.05
2022-08-17T01:25:25.879Z,6.15
2022-08-17T01:27:52.678Z,6.85
2022-08-17T01:30:56.963Z,8.23
2022-08-17T01:33:06.319Z,6.13
2022-08-17T01:35:33.115Z,7.80
2022-08-17T01:37:59.881Z,6.07
2022-08-17T01:40:39.030Z,5.75
2022-08-17T01:43:19.991Z,5.60
2022-08-17T01:46:03.464Z,7.88
2022-08-17T01:48:37.894Z,7.13
2022-08-17T01:51:07.593Z,6.55
2022-08-17T01:53:42.267Z,5.20
2022-08-17T01:56:16.777Z,7.82
2022-08-17T01:58:46.796Z,6.93
2022-08-17T02:01:22.957Z,4.28
2022-08-17T02:03:56.296Z,7.47
2022-08-17T02:06:27.503Z,7.03
2022-08-17T02:09:02.992Z,6.15
2022-08-17T02:11:33.168Z,5.88
2022-08-17T02:14:03.093Z,6.38
2022-08-17T02:16:36.868Z,5.03
2022-08-17T02:19:09.751Z,7.10
2022-08-17T02:21:38.352Z,5.45
2022-08-17T02:24:11.703Z,5.63
2022-08-17T02:26:38.495Z,6.13
2022-08-17T02:29:05.335Z,6.47
2022-08-17T02:31:32.209Z,5.65
2022-08-17T02:34:03.639Z,6.85
2022-08-17T02:36:33.162Z,6.65
2022-08-17T02:39:08.472Z,8.05
2022-08-17T02:44:05.848Z,6.82
2022-08-17T02:46:35.189Z,5.63
2022-08-17T02:49:02.022Z,7.20
2022-08-17T02:51:28.984Z,7.00
2022-08-17T02:54:39.106Z,5.35
2022-08-17T02:56:42.930Z,4.95
2022-08-17T02:59:09.719Z,6.20
2022-08-17T03:01:36.510Z,7.53
2022-08-17T03:04:03.544Z,4.70
2022-08-17T03:06:31.796Z,6.72
2022-08-17T03:08:58.722Z,5.97
2022-08-17T03:11:25.532Z,6.35
2022-08-17T03:13:52.269Z,5.20
2022-08-17T03:16:21.138Z,5.97
2022-08-17T03:18:48.569Z,5.40
2022-08-17T03:21:17.772Z,5.72
2022-08-17T03:23:44.536Z,7.95
2022-08-17T03:26:12.345Z,6.35
2022-08-17T03:28:42.466Z,7.18
2022-08-17T03:31:14.480Z,8.82
2022-08-17T03:33:43.430Z,5.45
2022-08-17T03:36:10.746Z,7.97
2022-08-17T03:38:39.071Z,5.43
2022-08-17T03:41:07.009Z,9.93
2022-08-17T03:43:34.618Z,7.70
2022-08-17T03:46:41.194Z,5.72
2022-08-17T03:49:27.319Z,5.38
2022-08-17T03:52:13.463Z,7.22
2022-08-17T03:55:00.479Z,6.30
2022-08-17T03:57:27.771Z,6.47
2022-08-17T03:59:55.357Z,7.40
2022-08-17T04:02:26.793Z,6.28
2022-08-17T04:04:55.745Z,8.15
2022-08-17T04:07:25.077Z,6.15
2022-08-17T04:09:51.984Z,5.15
2022-08-17T04:12:20.802Z,6.03
2022-08-17T04:14:52.810Z,6.90
2022-08-17T04:17:29.067Z,6.28
2022-08-17T04:19:56.943Z,6.30
2022-08-17T04:22:31.230Z,5.40
2022-08-17T04:25:09.037Z,5.60
2022-08-17T04:27:38.438Z,6.80
2022-08-17T04:30:07.319Z,5.57
2022-08-17T04:33:05.939Z,5.97
2022-08-17T04:35:43.152Z,5.13
2022-08-17T04:38:13.147Z,7.88
2022-08-17T04:40:58.727Z,6.30
2022-08-17T04:43:27.849Z,6.05
2022-08-17T04:45:57.728Z,7.05
2022-08-17T04:48:37.553Z,6.00
2022-08-17T04:51:09.732Z,7.50
2022-08-17T04:53:40.889Z,5.75
2022-08-17T04:56:11.643Z,7.05
2022-08-17T04:58:47.887Z,9.40
2022-08-17T05:01:23.229Z,8.77
2022-08-17T05:03:54.494Z,6.30
2022-08-17T05:06:22.111Z,7.43
2022-08-17T05:08:49.026Z,4.68
2022-08-17T05:11:15.920Z,7.10
2022-08-17T05:13:42.679Z,5.72
2022-08-17T05:16:09.704Z,6.93
2022-08-17T05:18:38.771Z,7.38
2022-08-17T05:21:08.414Z,5.57
2022-08-17T05:23:42.858Z,6.32
2022-08-17T05:26:26.171Z,5.47
2022-08-17T05:29:00.360Z,7.78
2022-08-17T05:31:28.758Z,6.35
2022-08-17T05:33:55.818Z,6.57
2022-08-17T05:36:41.808Z,6.65
2022-08-17T05:39:10.734Z,6.90
2022-08-17T05:41:43.596Z,6.80
2022-08-17T05:44:10.956Z,5.90
2022-08-17T05:46:41.913Z,7.53
2022-08-17T05:49:09.492Z,7.63
2022-08-17T05:52:06.393Z,7.50
2022-08-17T05:54:47.459Z,6.38
2022-08-17T05:57:53.389Z,8.48
2022-08-17T06:00:30.199Z,6.40
2022-08-17T06:03:25.030Z,6.38
2022-08-17T06:06:17.716Z,6.10
2022-08-17T06:08:51.904Z,8.38
2022-08-17T06:11:27.660Z,9.00
2022-08-17T06:14:03.937Z,7.07
2022-08-17T06:16:36.840Z,7.18
2022-08-17T06:19:14.856Z,9.57
2022-08-17T06:21:45.297Z,9.05
2022-08-17T06:24:18.317Z,11.20
2022-08-17T06:26:45.678Z,10.38
2022-08-17T06:29:30.562Z,9.90
2022-08-17T06:31:57.661Z,10.02
2022-08-17T06:34:24.587Z,11.23
2022-08-17T06:37:03.737Z,11.90
2022-08-17T06:39:41.545Z,8.02
2022-08-17T06:43:02.111Z,10.85
2022-08-17T06:45:34.637Z,9.50
2022-08-17T06:48:15.561Z,9.57
2022-08-17T06:51:08.317Z,12.98
2022-08-17T06:53:40.251Z,10.85
2022-08-17T06:56:10.978Z,11.57
2022-08-17T06:58:41.612Z,15.10
2022-08-17T07:01:25.200Z,12.32
2022-08-17T07:04:17.067Z,9.40
2022-08-17T07:06:59.348Z,11.63
2022-08-17T07:09:37.442Z,11.07
2022-08-17T07:12:16.149Z,9.82
2022-08-17T07:14:51.857Z,8.52
2022-08-17T07:17:21.354Z,10.73
2022-08-17T07:20:12.913Z,9.52
2022-08-17T07:23:11.829Z,9.05
2022-08-17T07:25:41.038Z,9.75
2022-08-17T07:28:07.989Z,8.00
2022-08-17T07:30:49.681Z,11.93
2022-08-17T07:33:21.210Z,9.90
2022-08-17T07:35:49.785Z,11.57
2022-08-17T07:38:24.820Z,12.05
2022-08-17T07:41:02.683Z,9.35
2022-08-17T07:43:42.073Z,12.65
2022-08-17T07:46:30.126Z,10.82
2022-08-17T07:49:24.834Z,10.43
2022-08-17T07:51:51.582Z,15.48
2022-08-17T07:54:32.174Z,10.68
2022-08-17T07:57:00.795Z,13.55
2022-08-17T07:59:37.353Z,12.90
2022-08-17T08:02:17.079Z,12.75
2022-08-17T08:05:00.943Z,12.38
2022-08-17T08:07:40.030Z,13.77
2022-08-17T08:10:06.955Z,12.68
2022-08-17T08:12:36.941Z,13.30
2022-08-17T08:15:10.049Z,13.23
2022-08-17T08:17:47.976Z,14.50
2022-08-17T08:20:34.886Z,15.77
2022-08-17T08:23:11.466Z,12.07
2022-08-17T08:26:01.680Z,12.02
2022-08-17T08:29:05.676Z,16.08
2022-08-17T08:32:01.682Z,14.50
2022-08-17T08:37:35.518Z,14.40
2022-08-17T08:40:11.041Z,13.93
2022-08-17T08:42:58.752Z,14.25
2022-08-17T08:45:53.360Z,17.00
2022-08-17T08:48:56.627Z,16.38
2022-08-17T08:51:55.626Z,15.07
2022-08-17T08:54:40.851Z,12.48
2022-08-17T08:57:34.022Z,14.10
2022-08-17T09:00:17.387Z,16.92
2022-08-17T09:03:20.113Z,12.93
2022-08-17T09:06:06.059Z,13.98
2022-08-17T09:08:55.853Z,12.60
2022-08-17T09:11:28.410Z,13.80
2022-08-17T09:14:05.681Z,15.10
2022-08-17T09:17:12.654Z,15.57
2022-08-17T09:19:59.546Z,12.68
2022-08-17T09:25:14.403Z,13.18
2022-08-17T09:28:01.005Z,15.85
2022-08-17T09:30:36.379Z,17.67
2022-08-17T09:33:07.956Z,12.27
2022-08-17T09:35:53.341Z,13.05
2022-08-17T09:38:41.752Z,15.30
2022-08-17T09:41:49.155Z,15.35
2022-08-17T09:44:28.292Z,14.52
2022-08-17T09:47:14.056Z,14.60
2022-08-17T09:49:53.901Z,13.13
2022-08-17T09:52:25.612Z,12.95
2022-08-17T09:54:57.737Z,17.15
2022-08-17T09:57:41.814Z,15.93
2022-08-17T10:00:27.783Z,15.10
2022-08-17T10:03:34.277Z,13.80
2022-08-17T10:08:44.054Z,16.30
2022-08-17T10:11:50.280Z,15.60
2022-08-17T10:17:33.071Z,22.90
2022-08-17T10:20:30.143Z,14.13
2022-08-17T10:23:19.122Z,16.05
2022-08-17T10:26:15.576Z,14.63
2022-08-17T10:28:55.216Z,13.20
2022-08-17T10:31:34.761Z,13.15
2022-08-17T10:34:41.829Z,16.92
2022-08-17T10:37:32.926Z,14.57
2022-08-17T10:40:27.938Z,15.07
2022-08-17T10:43:32.889Z,15.27
2022-08-17T10:46:31.047Z,14.32
2022-08-17T10:49:26.966Z,16.83
2022-08-17T10:51:56.976Z,15.53
2022-08-17T10:55:08.980Z,15.00
2022-08-17T10:57:36.142Z,12.95
2022-08-17T11:00:08.349Z,17.48
2022-08-17T11:02:49.627Z,15.52
2022-08-17T11:05:43.679Z,15.63
2022-08-17T11:08:23.005Z,14.50
2022-08-17T11:11:25.661Z,16.17
2022-08-17T11:14:11.259Z,14.90
2022-08-17T11:19:33.404Z,14.57
2022-08-17T11:22:12.283Z,19.55
2022-08-17T11:24:43.386Z,16.70
2022-08-17T11:27:28.459Z,19.70
2022-08-17T11:30:07.371Z,16.65
2022-08-17T11:32:47.142Z,16.83
2022-08-17T11:35:20.781Z,16.67
2022-08-17T11:37:55.614Z,17.88
2022-08-17T11:40:25.536Z,15.68
2022-08-17T11:43:42.980Z,16.30
2022-08-17T11:46:17.303Z,18.38
2022-08-17T11:49:11.536Z,17.00
2022-08-17T11:52:32.454Z,16.38
2022-08-17T11:55:12.405Z,17.33
2022-08-17T11:58:05.527Z,18.17
2022-08-17T12:00:49.792Z,20.38
2022-08-17T12:03:53.817Z,19.52
2022-08-17T12:06:30.211Z,19.08
2022-08-17T12:09:07.534Z,19.05
2022-08-17T12:11:58.731Z,19.17
2022-08-17T12:15:08.147Z,17.70
2022-08-17T12:17:41.499Z,19.88
2022-08-17T12:20:15.145Z,17.02
2022-08-17T12:32:54.569Z,16.10
2022-08-17T12:35:36.687Z,18.35
2022-08-17T12:38:32.069Z,18.40
2022-08-17T12:40:58.351Z,18.98
2022-08-17T12:43:31.173Z,19.98
2022-08-17T12:46:14.794Z,16.90
2022-08-17T12:48:58.915Z,18.13
2022-08-17T12:51:29.113Z,14.03
2022-08-17T12:53:56.288Z,14.57
2022-08-17T12:56:23.180Z,17.77
2022-08-17T12:58:54.366Z,18.08
2022-08-17T13:01:23.419Z,16.23
2022-08-17T13:03:53.438Z,15.25
2022-08-17T13:06:51.789Z,15.27
2022-08-17T13:09:35.664Z,15.75
2022-08-17T13:12:08.106Z,15.88
2022-08-17T13:14:35.334Z,19.65
2022-08-17T13:17:09.654Z,18.48
2022-08-17T13:19:49.334Z,22.02
2022-08-17T13:22:18.306Z,15.45
2022-08-17T13:25:16.036Z,17.75
2022-08-17T13:27:44.105Z,20.20
2022-08-17T13:30:14.168Z,18.73
2022-08-17T13:32:47.329Z,17.15
2022-08-17T13:35:40.016Z,19.98
2022-08-17T13:38:09.323Z,14.18
2022-08-17T13:40:41.686Z,15.77
2022-08-17T13:43:10.013Z,14.65
2022-08-17T13:45:50.609Z,13.18
2022-08-17T13:48:28.353Z,12.88
2022-08-17T13:50:56.441Z,13.98
2022-08-17T13:53:47.739Z,16.40
2022-08-17T13:56:38.825Z,16.25
2022-08-17T13:59:53.443Z,18.08
2022-08-17T14:02:20.360Z,17.38
2022-08-17T14:04:47.974Z,21.83
2022-08-17T14:07:16.038Z,17.13
2022-08-17T14:09:55.878Z,19.27
2022-08-17T14:12:25.970Z,21.95
2022-08-17T14:14:55.028Z,17.73
2022-08-17T14:17:23.067Z,21.60
2022-08-17T14:19:51.009Z,21.48
2022-08-17T14:22:34.868Z,21.90
2022-08-17T14:25:02.455Z,23.42
2022-08-17T14:27:33.364Z,25.42
2022-08-17T14:30:09.197Z,23.58
2022-08-17T14:32:41.332Z,22.35
2022-08-17T14:35:10.100Z,22.63
2022-08-17T14:37:36.999Z,23.52
2022-08-17T14:40:10.815Z,22.80
2022-08-17T14:42:40.287Z,21.25
2022-08-17T14:45:32.892Z,19.20
2022-08-17T14:47:59.598Z,19.33
2022-08-17T14:50:27.202Z,17.23
2022-08-17T14:52:58.194Z,17.98
2022-08-17T14:55:26.527Z,21.25
2022-08-17T14:57:55.616Z,23.10
2022-08-17T15:00:26.045Z,22.58
2022-08-17T15:03:00.339Z,21.63
2022-08-17T15:05:39.509Z,23.23
2022-08-17T15:08:07.073Z,24.67
2022-08-17T15:10:36.518Z,25.92
2022-08-17T15:13:03.987Z,22.65
2022-08-17T15:15:30.853Z,23.08
2022-08-17T15:18:00.032Z,19.55
2022-08-17T15:20:29.779Z,18.42
2022-08-17T15:22:58.984Z,19.27
2022-08-17T15:25:29.587Z,16.48
2022-08-17T15:27:56.788Z,21.95
2022-08-17T15:30:24.284Z,19.05
2022-08-17T15:32:55.207Z,18.85
2022-08-17T15:35:27.920Z,15.68
2022-08-17T15:38:11.050Z,20.30
2022-08-17T15:40:43.835Z,18.25
2022-08-17T15:43:35.121Z,19.08
2022-08-17T15:46:07.811Z,17.80
2022-08-17T15:48:41.822Z,14.52
2022-08-17T15:51:08.952Z,16.50
2022-08-17T15:53:36.587Z,15.00
2022-08-17T15:56:06.288Z,13.13
2022-08-17T15:58:36.763Z,14.27
2022-08-17T16:01:14.756Z,18.35
2022-08-17T16:04:04.821Z,14.20
2022-08-17T16:06:34.603Z,16.15
2022-08-17T16:09:01.411Z,16.17
2022-08-17T16:11:28.236Z,19.48
2022-08-17T16:13:56.057Z,14.00
2022-08-17T16:16:23.765Z,16.55
2022-08-17T16:18:54.496Z,17.23
2022-08-17T16:21:27.103Z,19.50
2022-08-17T16:24:03.490Z,15.45
2022-08-17T16:26:31.962Z,15.30
2022-08-17T16:29:01.076Z,16.50
2022-08-17T16:31:28.972Z,19.13
2022-08-17T16:34:16.085Z,16.40
2022-08-17T16:36:54.639Z,14.23
2022-08-17T16:39:28.950Z,13.88
2022-08-17T16:41:56.964Z,16.88
2022-08-17T16:44:26.112Z,14.55
2022-08-17T16:46:53.590Z,14.23
2022-08-17T16:49:35.101Z,14.45
2022-08-17T16:52:07.488Z,16.17
2022-08-17T16:54:35.663Z,14.25
2022-08-17T16:57:05.132Z,14.13
2022-08-17T16:59:40.811Z,15.50
2022-08-17T17:02:13.456Z,14.57
2022-08-17T17:04:49.517Z,14.27
2022-08-17T17:07:36.533Z,17.80
2022-08-17T17:10:17.145Z,13.23
2022-08-17T17:13:03.165Z,14.55
2022-08-17T17:15:47.273Z,13.60
2022-08-17T17:18:15.722Z,14.27
2022-08-17T17:20:55.259Z,16.00
2022-08-17T17:23:43.462Z,16.63
2022-08-17T17:26:40.794Z,16.08
2022-08-17T17:29:10.715Z,13.82
2022-08-17T17:31:47.283Z,15.02
2022-08-17T17:34:16.577Z,13.25
2022-08-17T17:36:52.045Z,10.85
2022-08-17T17:40:00.053Z,11.07
2022-08-17T17:42:31.525Z,13.18
2022-08-17T17:45:13.492Z,12.48
2022-08-17T17:47:40.602Z,11.55
2022-08-17T17:50:08.461Z,10.52
2022-08-17T17:53:04.373Z,10.18
2022-08-17T17:55:54.834Z,11.07
2022-08-17T17:59:06.508Z,12.23
2022-08-17T18:01:59.278Z,10.32
2022-08-17T18:04:41.373Z,10.65
2022-08-17T18:07:19.395Z,10.05
2022-08-17T18:10:29.907Z,14.05
2022-08-17T18:13:39.225Z,12.18
2022-08-17T18:16:10.128Z,11.85
2022-08-17T18:18:39.090Z,12.63
2022-08-17T18:21:16.749Z,13.45
2022-08-17T18:24:00.617Z,13.27
2022-08-17T18:26:33.512Z,12.90
2022-08-17T18:29:02.415Z,17.45
2022-08-17T18:31:29.442Z,12.57
2022-08-17T18:34:45.910Z,13.75
2022-08-17T18:37:10.737Z,13.73
2022-08-17T18:39:38.336Z,13.10
2022-08-17T18:42:23.567Z,12.35
2022-08-17T18:44:54.788Z,14.15
2022-08-17T18:47:25.393Z,14.50
2022-08-17T18:50:19.370Z,10.63
2022-08-17T18:52:48.552Z,13.00
2022-08-17T18:55:22.235Z,12.10
2022-08-17T18:58:18.126Z,13.27
2022-08-17T19:03:15.690Z,12.88
2022-08-17T19:05:49.769Z,11.27
2022-08-17T19:08:19.281Z,10.60
2022-08-17T19:10:49.303Z,11.18
2022-08-17T19:13:23.268Z,12.45
2022-08-17T19:16:11.454Z,11.48
2022-08-17T19:19:04.893Z,10.88
2022-08-17T19:21:45.830Z,14.45
2022-08-17T19:24:29.955Z,12.00
2022-08-17T19:27:43.670Z,13.15
2022-08-17T19:30:14.798Z,11.10
2022-08-17T19:32:44.539Z,13.10
2022-08-17T19:35:17.383Z,10.30
2022-08-17T19:38:03.802Z,10.25
2022-08-17T19:40:56.069Z,10.75
2022-08-17T19:43:28.592Z,11.07
2022-08-17T19:46:27.367Z,10.82
2022-08-17T19:49:33.169Z,9.98
2022-08-17T19:52:43.184Z,11.63
2022-08-17T19:55:47.460Z,10.55
2022-08-17T19:58:42.830Z,11.75
2022-08-17T20:01:19.472Z,10.57
2022-08-17T20:04:03.388Z,10.55
2022-08-17T20:06:34.402Z,11.02
2022-08-17T20:09:20.029Z,11.40
2022-08-17T20:14:19.635Z,10.70
2022-08-17T20:16:46.412Z,10.18
2022-08-17T20:19:24.279Z,13.10
2022-08-17T20:21:58.306Z,12.20
2022-08-17T20:24:39.938Z,13.10
2022-08-17T20:27:10.064Z,23.50
2022-08-17T20:29:55.258Z,12.52
2022-08-17T20:32:26.857Z,12.75
2022-08-17T20:35:21.026Z,10.50
2022-08-17T20:37:58.003Z,12.10
2022-08-17T20:40:38.497Z,10.77
2022-08-17T20:43:43.246Z,9.98
2022-08-17T20:46:28.150Z,11.80
2022-08-17T20:48:59.824Z,12.40
2022-08-17T20:51:32.488Z,11.35
2022-08-17T20:54:07.087Z,12.93
2022-08-17T20:56:46.531Z,11.27
2022-08-17T20:59:30.353Z,13.25
2022-08-17T21:02:12.377Z,15.25
2022-08-17T21:04:54.462Z,13.43
2022-08-17T21:07:41.055Z,12.75
2022-08-17T21:10:16.796Z,12.65
2022-08-17T21:12:48.524Z,13.18
2022-08-17T21:15:39.320Z,14.02
2022-08-17T21:18:16.461Z,13.82
2022-08-17T21:21:15.349Z,12.85
2022-08-17T21:23:57.078Z,13.00
2022-08-17T21:26:50.500Z,13.75
2022-08-17T21:29:31.753Z,12.60
2022-08-17T21:32:00.530Z,12.88
2022-08-17T21:34:43.278Z,15.18
2022-08-17T21:37:18.942Z,12.90
2022-08-17T21:40:08.711Z,14.98
2022-08-17T21:42:38.315Z,12.50
2022-08-17T21:45:24.339Z,16.10
2022-08-17T21:48:17.716Z,14.02
2022-08-17T21:50:55.731Z,13.93
2022-08-17T21:53:38.021Z,14.10
2022-08-17T21:56:06.114Z,13.10
2022-08-17T21:58:39.092Z,15.35
2022-08-17T22:01:20.017Z,15.55
2022-08-17T22:04:14.165Z,16.88
2022-08-17T22:06:57.308Z,16.52
2022-08-17T22:09:25.697Z,13.30
2022-08-17T22:11:58.341Z,13.40
2022-08-17T22:14:53.296Z,14.07
2022-08-17T22:17:25.106Z,14.95
2022-08-17T22:20:01.451Z,13.57
2022-08-17T22:22:33.976Z,14.18
2022-08-17T22:25:05.227Z,14.23
2022-08-17T22:27:57.847Z,14.57
2022-08-17T22:30:27.541Z,18.63
2022-08-17T22:32:59.724Z,18.05
2022-08-17T22:35:34.807Z,16.58
2022-08-17T22:38:19.834Z,17.67
2022-08-17T22:40:56.090Z,21.20
2022-08-17T22:43:28.605Z,16.70
2022-08-17T22:45:58.950Z,18.42
2022-08-17T22:48:28.766Z,17.00
2022-08-17T22:51:14.146Z,18.00
2022-08-17T22:54:12.236Z,20.73
2022-08-17T22:57:32.066Z,19.88
2022-08-17T23:00:00.806Z,23.55
2022-08-17T23:02:34.362Z,18.23
2022-08-17T23:05:10.768Z,20.27
2022-08-17T23:07:37.857Z,25.13
2022-08-17T23:10:07.534Z,21.25
2022-08-17T23:12:39.660Z,22.00
2022-08-17T23:15:14.564Z,19.52
2022-08-17T23:17:42.159Z,20.52
2022-08-17T23:20:12.551Z,20.75
2022-08-17T23:22:51.255Z,19.73
2022-08-17T23:25:28.269Z,19.27
2022-08-17T23:28:01.883Z,22.60
2022-08-17T23:30:30.537Z,23.08
2022-08-17T23:33:04.697Z,19.92
2022-08-17T23:35:40.097Z,22.65
2022-08-17T23:38:12.954Z,21.25
2022-08-17T23:40:43.093Z,21.10
2022-08-17T23:43:24.322Z,22.05
2022-08-17T23:45:57.954Z,20.48
2022-08-17T23:48:34.973Z,20.67
2022-08-17T23:51:10.829Z,23.40
2022-08-17T23:53:41.916Z,20.00
2022-08-17T23:56:11.820Z,22.45
2022-08-17T23:58:41.930Z,22.35
